Time;durP1;ratioP1;P1;durP2;ratioP2;P2;SDS_P1;SDS_P2;PMS_P1;PMS_P2;Temp;Humidity;BMP_temperature;BMP_pressure;BME280_temperature;BME280_humidity;BME280_pressure;Samples;Min_cycle;Max_cycle;Signal;HPM_P1;HPM_P2
2023/01/10 00:00:33;;;;;;;2.78;1.65;;;5.90;99.90;;;;;;5043508;28;20036;-75
2023/01/10 00:02:59;;;;;;;3.42;1.88;;;6.00;99.90;;;;;;5043545;28;20112;-75
2023/01/10 00:05:24;;;;;;;2.50;1.45;;;5.90;99.90;;;;;;5042425;28;20056;-75
2023/01/10 00:07:50;;;;;;;7.72;1.90;;;5.90;99.90;;;;;;5042038;28;20049;-76
2023/01/10 00:10:15;;;;;;;5.32;1.50;;;5.90;99.90;;;;;;5041616;28;20038;-75
2023/01/10 00:15:25;;;;;;;1.70;1.25;;;5.90;99.90;;;;;;5042587;28;20040;-75
2023/01/10 00:17:51;;;;;;;3.80;1.42;;;5.90;99.90;;;;;;5043364;28;20045;-75
2023/01/10 00:20:17;;;;;;;4.88;1.35;;;6.00;99.90;;;;;;5041660;28;20022;-75
2023/01/10 00:22:44;;;;;;;6.20;2.20;;;6.00;99.90;;;;;;5042162;28;20061;-75
2023/01/10 00:25:10;;;;;;;2.28;1.52;;;6.00;99.90;;;;;;5041966;28;20030;-76
2023/01/10 00:27:35;;;;;;;4.68;1.30;;;6.00;99.90;;;;;;5043283;28;20057;-75
2023/01/10 00:30:12;;;;;;;4.70;1.60;;;6.00;99.90;;;;;;5042172;28;20022;-76
2023/01/10 00:32:39;;;;;;;5.85;1.55;;;6.00;99.90;;;;;;5042882;28;20052;-76
2023/01/10 00:35:05;;;;;;;3.60;1.20;;;6.00;99.90;;;;;;5043028;28;20018;-75
2023/01/10 00:37:31;;;;;;;3.42;1.30;;;6.10;99.90;;;;;;5041621;28;20108;-75
2023/01/10 00:39:57;;;;;;;3.95;1.58;;;6.10;99.90;;;;;;5043261;28;20045;-75
2023/01/10 00:45:08;;;;;;;1.70;1.40;;;6.20;99.90;;;;;;5043975;28;20044;-75
2023/01/10 00:47:33;;;;;;;2.33;1.35;;;6.20;99.90;;;;;;5043569;28;20029;-75
2023/01/10 00:49:59;;;;;;;2.22;1.40;;;6.20;99.90;;;;;;5042949;28;20099;-75
2023/01/10 00:52:25;;;;;;;4.60;1.50;;;6.20;99.90;;;;;;5042339;28;20030;-75
2023/01/10 00:54:50;;;;;;;3.63;1.20;;;6.20;99.90;;;;;;5042485;28;20049;-75
2023/01/10 00:57:16;;;;;;;7.03;1.55;;;6.20;99.90;;;;;;5041139;28;20026;-75
2023/01/10 00:59:42;;;;;;;3.28;1.42;;;6.20;99.90;;;;;;5042636;28;20037;-75
2023/01/10 01:02:07;;;;;;;5.72;1.98;;;6.20;99.90;;;;;;5044133;28;20057;-75
2023/01/10 01:04:33;;;;;;;4.35;1.92;;;6.30;99.90;;;;;;5042769;28;20036;-75
2023/01/10 01:07:02;;;;;;;4.75;1.52;;;6.30;99.90;;;;;;5042190;28;20042;-75
2023/01/10 01:09:28;;;;;;;5.97;1.70;;;6.20;99.90;;;;;;5043002;28;20036;-75
2023/01/10 01:11:55;;;;;;;1.98;1.55;;;6.20;99.90;;;;;;5041419;28;20064;-75
2023/01/10 01:14:22;;;;;;;5.65;1.92;;;6.20;99.90;;;;;;5042064;28;20030;-75
2023/01/10 01:16:48;;;;;;;3.53;1.80;;;6.10;99.90;;;;;;5040934;28;20034;-75
2023/01/10 01:19:14;;;;;;;4.90;2.17;;;6.10;99.90;;;;;;5043045;28;20032;-75
2023/01/10 01:21:40;;;;;;;4.95;2.47;;;6.00;99.90;;;;;;5043831;28;20040;-74
2023/01/10 01:24:08;;;;;;;3.40;2.00;;;6.00;99.90;;;;;;5043849;28;20029;-75
2023/01/10 01:26:34;;;;;;;5.05;1.92;;;6.00;99.90;;;;;;5043280;28;20494;-75
2023/01/10 01:28:59;;;;;;;3.88;2.20;;;6.00;99.90;;;;;;5043398;28;20071;-75
2023/01/10 01:31:25;;;;;;;2.83;2.10;;;6.00;99.90;;;;;;5042764;28;20033;-75
2023/01/10 01:33:51;;;;;;;4.80;1.80;;;6.00;99.90;;;;;;5044253;28;20033;-75
2023/01/10 01:36:16;;;;;;;5.43;2.00;;;6.00;99.90;;;;;;5044358;28;20030;-75
2023/01/10 01:38:42;;;;;;;4.68;1.95;;;6.00;99.90;;;;;;5042980;28;20029;-75
2023/01/10 01:41:55;;;;;;;3.08;1.58;;;6.00;99.90;;;;;;5043198;28;20029;-75
2023/01/10 01:44:03;;;;;;;3.60;1.65;;;6.00;99.90;;;;;;5043646;28;20032;-75
2023/01/10 01:46:31;;;;;;;5.65;1.92;;;6.10;99.90;;;;;;5044303;28;20084;-75
2023/01/10 01:48:57;;;;;;;4.38;1.40;;;6.10;99.90;;;;;;5044446;28;20021;-75
2023/01/10 01:51:27;;;;;;;3.50;1.33;;;6.10;99.90;;;;;;5042868;28;20039;-74
2023/01/10 01:54:06;;;;;;;2.10;0.98;;;6.20;99.90;;;;;;5041064;28;20036;-74
2023/01/10 01:56:44;;;;;;;6.65;1.63;;;6.30;99.90;;;;;;5043080;28;20034;-75
2023/01/10 01:59:32;;;;;;;1.40;0.93;;;6.30;99.90;;;;;;5043872;28;20033;-75
2023/01/10 02:02:13;;;;;;;3.72;1.90;;;6.30;99.90;;;;;;5043336;28;20135;-75
2023/01/10 02:04:57;;;;;;;2.58;1.70;;;6.30;99.90;;;;;;5043241;28;20120;-74
2023/01/10 02:07:26;;;;;;;2.78;1.92;;;6.30;99.90;;;;;;5042215;28;20030;-75
2023/01/10 02:10:00;;;;;;;1.80;1.33;;;6.20;99.90;;;;;;5042407;28;20033;-75
2023/01/10 02:12:28;;;;;;;3.75;2.10;;;6.20;99.90;;;;;;5041702;28;20029;-75
2023/01/10 02:14:53;;;;;;;1.98;1.80;;;6.20;99.90;;;;;;5041061;28;20037;-75
2023/01/10 02:17:19;;;;;;;3.45;1.80;;;6.20;99.90;;;;;;5040886;28;20029;-75
2023/01/10 02:19:59;;;;;;;4.32;1.45;;;6.10;99.90;;;;;;5039165;28;20021;-75
2023/01/10 02:22:58;;;;;;;3.85;1.85;;;6.10;99.90;;;;;;5039278;28;20021;-75
2023/01/10 02:26:01;;;;;;;2.72;1.70;;;6.10;99.90;;;;;;5040539;28;20026;-75
2023/01/10 02:28:45;;;;;;;5.03;1.60;;;6.00;99.90;;;;;;5039453;28;20050;-75
2023/01/10 02:31:17;;;;;;;3.92;1.80;;;6.00;99.90;;;;;;5041412;28;20037;-75
2023/01/10 02:34:05;;;;;;;2.80;1.73;;;6.00;99.90;;;;;;5039442;28;20124;-75
2023/01/10 02:36:34;;;;;;;;;;;5.90;99.90;;;;;;5043141;28;20033;-75
2023/01/10 02:39:21;;;;;;;1.42;1.33;;;5.90;99.90;;;;;;5041114;28;19905;-75
2023/01/10 02:42:07;;;;;;;3.45;1.52;;;5.90;99.90;;;;;;5040378;28;20026;-75
2023/01/10 02:44:41;;;;;;;2.33;1.80;;;5.90;99.90;;;;;;5042174;28;20109;-75
2023/01/10 02:47:08;;;;;;;3.90;1.83;;;5.90;99.90;;;;;;5040956;28;20030;-75
2023/01/10 02:49:45;;;;;;;1.83;1.35;;;5.90;99.90;;;;;;5040944;28;20048;-74
2023/01/10 02:52:14;;;;;;;4.93;1.23;;;5.90;99.90;;;;;;5042986;28;20077;-74
2023/01/10 02:54:40;;;;;;;1.17;0.90;;;5.90;99.90;;;;;;5043308;28;20382;-74
2023/01/10 02:57:15;;;;;;;1.60;1.35;;;5.90;99.90;;;;;;5048121;28;20030;-74
2023/01/10 03:00:07;;;;;;;2.47;1.00;;;5.90;99.90;;;;;;5044653;28;20471;-74
2023/01/10 03:02:45;;;;;;;3.35;1.40;;;6.00;99.90;;;;;;5044018;28;20427;-74
2023/01/10 03:05:29;;;;;;;2.47;0.80;;;6.00;99.90;;;;;;5044767;28;20037;-74
2023/01/10 03:08:07;;;;;;;1.08;0.88;;;6.10;99.90;;;;;;5045647;28;20029;-75
2023/01/10 03:11:04;;;;;;;2.95;1.17;;;6.10;99.90;;;;;;5043867;28;20025;-75
2023/01/10 03:13:29;;;;;;;1.05;0.52;;;6.20;99.90;;;;;;5035427;28;20489;-74
2023/01/10 03:15:59;;;;;;;3.30;0.90;;;6.20;99.90;;;;;;5043945;28;20072;-75
2023/01/10 03:18:34;;;;;;;2.35;0.40;;;6.30;99.90;;;;;;5043306;28;20048;-75
2023/01/10 03:21:04;;;;;;;3.08;0.60;;;6.30;99.90;;;;;;5042777;28;20021;-75
2023/01/10 03:23:32;;;;;;;1.33;0.50;;;6.40;99.90;;;;;;5045358;28;20022;-75
2023/01/10 03:25:59;;;;;;;2.10;0.60;;;6.40;99.90;;;;;;5044647;28;20033;-75
2023/01/10 03:28:40;;;;;;;2.25;0.50;;;6.40;99.90;;;;;;5044433;28;20441;-75
2023/01/10 03:31:12;;;;;;;2.85;0.38;;;6.40;99.90;;;;;;5046146;28;20033;-75
2023/01/10 03:33:38;;;;;;;0.90;0.90;;;6.40;99.90;;;;;;5045404;28;20479;-75
2023/01/10 03:36:25;;;;;;;0.98;0.45;;;6.40;99.90;;;;;;5044779;28;20117;-75
2023/01/10 03:39:04;;;;;;;1.75;0.57;;;6.40;99.90;;;;;;5045584;28;20409;-75
2023/01/10 03:41:50;;;;;;;1.83;0.55;;;6.40;99.90;;;;;;5044989;28;20099;-75
2023/01/10 03:47:15;;;;;;;1.92;0.52;;;6.30;99.90;;;;;;5044857;28;20501;-75
2023/01/10 03:49:43;;;;;;;2.00;0.80;;;6.20;99.90;;;;;;5044387;28;20030;-75
2023/01/10 03:52:13;;;;;;;3.40;1.15;;;6.10;99.90;;;;;;5044468;28;20026;-74
2023/01/10 03:54:42;;;;;;;1.38;0.60;;;6.00;99.90;;;;;;5041434;28;20065;-74
2023/01/10 03:57:13;;;;;;;1.15;0.70;;;6.00;99.90;;;;;;5041577;28;20029;-74
2023/01/10 03:59:39;;;;;;;2.15;0.70;;;5.90;99.90;;;;;;5044270;28;20036;-74
2023/01/10 04:02:05;;;;;;;1.35;0.82;;;5.80;99.90;;;;;;5043296;28;20025;-74
2023/01/10 04:04:31;;;;;;;2.30;0.88;;;5.80;99.90;;;;;;5043016;28;20071;-74
2023/01/10 04:06:57;;;;;;;1.70;1.20;;;5.70;99.90;;;;;;5042013;28;20029;-74
2023/01/10 04:09:22;;;;;;;1.10;1.00;;;5.60;99.90;;;;;;5041733;28;20039;-74
2023/01/10 04:11:48;;;;;;;2.22;1.10;;;5.60;99.90;;;;;;5041385;28;20036;-74
2023/01/10 04:14:14;;;;;;;2.85;0.90;;;5.60;99.90;;;;;;5042620;28;20030;-74
2023/01/10 04:16:39;;;;;;;2.53;1.10;;;5.50;99.90;;;;;;5042086;28;20029;-73
2023/01/10 04:19:05;;;;;;;2.55;0.90;;;5.50;99.90;;;;;;5042097;28;20032;-74
2023/01/10 04:21:31;;;;;;;0.98;0.95;;;5.50;99.90;;;;;;5041888;28;20362;-73
2023/01/10 04:23:56;;;;;;;3.88;1.13;;;5.50;99.90;;;;;;5041058;28;20021;-74
2023/01/10 04:26:23;;;;;;;2.08;1.00;;;5.50;99.90;;;;;;5041711;28;20041;-74
2023/01/10 04:28:48;;;;;;;1.52;1.00;;;5.50;99.90;;;;;;5042883;28;20056;-73
2023/01/10 04:31:14;;;;;;;1.80;0.80;;;5.40;99.90;;;;;;5041039;28;20029;-73
2023/01/10 04:33:40;;;;;;;1.98;1.25;;;5.40;99.90;;;;;;5043436;28;20026;-73
2023/01/10 04:36:06;;;;;;;1.13;0.70;;;5.40;99.90;;;;;;5043163;28;20431;-74
2023/01/10 04:38:32;;;;;;;0.93;0.90;;;5.40;99.90;;;;;;5043299;28;20026;-74
2023/01/10 04:40:57;;;;;;;2.80;1.35;;;5.40;99.90;;;;;;5043244;28;20081;-74
2023/01/10 04:43:24;;;;;;;1.00;0.90;;;5.40;99.90;;;;;;5042993;28;20025;-74
2023/01/10 04:45:50;;;;;;;2.60;1.00;;;5.40;99.90;;;;;;5042447;28;20038;-74
2023/01/10 04:48:16;;;;;;;2.67;1.15;;;5.40;99.90;;;;;;5040203;28;20029;-74
2023/01/10 04:50:42;;;;;;;2.63;1.10;;;5.40;99.90;;;;;;5040837;28;20529;-74
2023/01/10 04:53:07;;;;;;;1.75;0.88;;;5.40;99.90;;;;;;5042131;28;20022;-74
2023/01/10 04:55:34;;;;;;;2.33;0.90;;;5.40;99.90;;;;;;5041852;28;20129;-74
2023/01/10 04:58:01;;;;;;;4.50;1.23;;;5.40;99.90;;;;;;5042285;28;20021;-74
2023/01/10 05:00:27;;;;;;;1.30;0.60;;;5.40;99.90;;;;;;5042840;28;20390;-74
2023/01/10 05:02:56;;;;;;;2.45;1.33;;;5.40;99.90;;;;;;5043199;28;20041;-74
2023/01/10 05:05:22;;;;;;;1.38;0.80;;;5.40;99.90;;;;;;5041548;28;20373;-74
2023/01/10 05:07:48;;;;;;;3.88;0.88;;;5.50;99.90;;;;;;5040382;28;20029;-74
2023/01/10 05:10:14;;;;;;;1.63;0.98;;;5.50;99.90;;;;;;5039750;28;20117;-74
2023/01/10 05:12:39;;;;;;;3.00;0.50;;;5.50;99.90;;;;;;5040934;28;20025;-75
2023/01/10 05:15:06;;;;;;;0.90;0.70;;;5.60;99.90;;;;;;5040859;28;20033;-74
2023/01/10 05:17:31;;;;;;;5.32;0.80;;;5.60;99.90;;;;;;5040031;28;20125;-74
2023/01/10 05:19:57;;;;;;;1.30;0.80;;;5.70;99.90;;;;;;5038821;28;20049;-74
2023/01/10 05:22:23;;;;;;;2.25;0.73;;;5.70;99.90;;;;;;5038700;28;20036;-74
2023/01/10 05:24:49;;;;;;;2.75;0.90;;;5.70;99.90;;;;;;5041168;28;20032;-74
2023/01/10 05:27:15;;;;;;;2.20;0.65;;;5.70;99.90;;;;;;5037510;28;20084;-74
2023/01/10 05:29:40;;;;;;;1.00;0.90;;;5.70;99.90;;;;;;5040063;28;20025;-75
2023/01/10 05:32:06;;;;;;;2.22;0.80;;;5.70;99.90;;;;;;5040082;28;20025;-74
2023/01/10 05:34:32;;;;;;;3.00;0.93;;;5.70;99.90;;;;;;5037721;28;20026;-74
2023/01/10 05:36:57;;;;;;;0.95;0.95;;;5.70;99.90;;;;;;5038640;28;20053;-73
2023/01/10 05:39:23;;;;;;;5.90;1.23;;;5.60;99.90;;;;;;5041049;28;20057;-73
2023/01/10 05:41:49;;;;;;;1.15;1.02;;;5.60;99.90;;;;;;5041838;28;20037;-73
2023/01/10 05:44:14;;;;;;;0.98;0.80;;;5.60;99.90;;;;;;5038532;28;20026;-73
2023/01/10 05:46:40;;;;;;;4.32;1.02;;;5.60;99.90;;;;;;5039142;28;20363;-73
2023/01/10 05:49:05;;;;;;;2.15;1.00;;;5.60;99.90;;;;;;5036599;28;20382;-73
2023/01/10 05:51:31;;;;;;;2.75;1.00;;;5.60;99.90;;;;;;5033768;28;20029;-73
2023/01/10 05:53:57;;;;;;;1.92;1.10;;;5.60;99.90;;;;;;5038610;28;20025;-73
2023/01/10 05:56:24;;;;;;;1.58;1.42;;;5.60;99.90;;;;;;5038301;28;20044;-73
2023/01/10 05:58:50;;;;;;;2.22;1.60;;;5.60;99.90;;;;;;5039714;28;20025;-73
2023/01/10 06:01:15;;;;;;;1.73;1.20;;;5.60;99.90;;;;;;5037573;28;20025;-73
2023/01/10 06:03:41;;;;;;;2.15;1.20;;;5.50;99.90;;;;;;5038859;28;20164;-73
2023/01/10 06:06:07;;;;;;;2.17;0.93;;;5.50;99.90;;;;;;5037247;28;20037;-73
2023/01/10 06:08:33;;;;;;;1.60;1.30;;;5.50;99.90;;;;;;5038460;28;20099;-73
2023/01/10 06:10:58;;;;;;;2.42;1.48;;;5.60;99.90;;;;;;5037725;28;20059;-74
2023/01/10 06:13:24;;;;;;;1.20;1.10;;;5.60;99.90;;;;;;5039071;28;20022;-72
2023/01/10 06:15:50;;;;;;;2.92;1.63;;;5.50;99.90;;;;;;5035624;28;20029;-73
2023/01/10 06:18:15;;;;;;;2.22;1.85;;;5.50;99.90;;;;;;5039613;28;20053;-73
2023/01/10 06:20:42;;;;;;;1.55;1.45;;;5.50;99.90;;;;;;5037575;28;20029;-74
2023/01/10 06:23:08;;;;;;;1.38;0.88;;;5.50;99.90;;;;;;5037255;28;20549;-74
2023/01/10 06:25:38;;;;;;;3.38;1.30;;;5.60;99.90;;;;;;5037046;28;20025;-73
2023/01/10 06:28:05;;;;;;;2.40;1.42;;;5.60;99.90;;;;;;5036938;28;20056;-74
2023/01/10 06:30:30;;;;;;;1.45;1.35;;;5.60;99.90;;;;;;5036671;28;20026;-73
2023/01/10 06:33:03;;;;;;;2.40;1.30;;;5.60;99.90;;;;;;5038591;28;20036;-73
2023/01/10 06:35:29;;;;;;;2.33;1.10;;;5.60;99.90;;;;;;5037547;28;20030;-74
2023/01/10 06:37:55;;;;;;;4.35;1.27;;;5.60;99.90;;;;;;5037488;28;20100;-73
2023/01/10 06:40:21;;;;;;;3.83;1.10;;;5.60;99.90;;;;;;5038535;28;20034;-74
2023/01/10 06:42:47;;;;;;;1.23;0.98;;;5.70;99.90;;;;;;5038109;28;20079;-73
2023/01/10 06:45:12;;;;;;;5.68;1.15;;;5.70;99.90;;;;;;5036878;28;20029;-73
2023/01/10 06:47:38;;;;;;;2.20;1.02;;;5.70;99.90;;;;;;5037835;28;20459;-73
2023/01/10 06:50:04;;;;;;;0.95;0.95;;;5.80;99.90;;;;;;5035616;28;20481;-74
2023/01/10 06:52:30;;;;;;;1.23;1.10;;;5.80;99.90;;;;;;5035276;28;20487;-74
2023/01/10 06:54:56;;;;;;;1.50;1.10;;;5.90;99.90;;;;;;5035380;28;20025;-74
2023/01/10 06:57:22;;;;;;;3.30;1.55;;;5.90;99.90;;;;;;5034552;28;20060;-73
2023/01/10 06:59:47;;;;;;;3.03;1.38;;;5.90;99.90;;;;;;5036230;28;20061;-74
2023/01/10 07:02:13;;;;;;;3.50;1.92;;;6.00;99.90;;;;;;5036720;28;20029;-75
2023/01/10 07:04:39;;;;;;;3.55;1.23;;;6.00;99.90;;;;;;5035845;28;20418;-74
2023/01/10 07:07:05;;;;;;;3.00;1.85;;;6.00;99.90;;;;;;5036470;28;20030;-74
2023/01/10 07:09:31;;;;;;;3.80;1.67;;;6.00;99.90;;;;;;5038758;28;20152;-74
2023/01/10 07:11:56;;;;;;;2.60;1.58;;;6.00;99.90;;;;;;5037301;28;20120;-74
2023/01/10 07:14:22;;;;;;;3.80;1.40;;;6.00;99.90;;;;;;5037613;28;20652;-74
2023/01/10 07:16:48;;;;;;;2.22;1.38;;;6.10;99.90;;;;;;5038293;28;20483;-74
2023/01/10 07:19:14;;;;;;;5.47;1.67;;;6.10;99.90;;;;;;5035544;28;20445;-74
2023/01/10 07:21:40;;;;;;;1.23;1.13;;;6.10;99.90;;;;;;5036275;28;20060;-74
2023/01/10 07:24:07;;;;;;;3.03;1.50;;;6.10;99.90;;;;;;5036064;28;20026;-74
2023/01/10 07:26:33;;;;;;;2.08;1.13;;;6.20;99.90;;;;;;5036234;28;20520;-74
2023/01/10 07:28:58;;;;;;;3.72;1.65;;;6.10;99.90;;;;;;5056993;28;20044;-74
2023/01/10 07:31:24;;;;;;;5.13;1.50;;;6.20;99.90;;;;;;5056395;28;20106;-73
2023/01/10 07:33:51;;;;;;;3.08;1.45;;;6.20;99.90;;;;;;5054794;28;20081;-74
2023/01/10 07:36:16;;;;;;;3.05;1.70;;;6.20;99.90;;;;;;5057213;28;20033;-74
2023/01/10 07:38:42;;;;;;;2.80;1.50;;;6.10;99.90;;;;;;5055409;28;20037;-74
2023/01/10 07:41:08;;;;;;;3.33;1.63;;;6.10;99.90;;;;;;5054718;28;20025;-74
2023/01/10 07:43:33;;;;;;;4.40;1.60;;;6.10;99.90;;;;;;5057794;28;20386;-74
2023/01/10 07:46:06;;;;;;;2.25;1.67;;;6.10;99.90;;;;;;5057928;28;20029;-74
2023/01/10 07:48:32;;;;;;;2.25;1.80;;;6.10;99.90;;;;;;5056527;28;20379;-73
2023/01/10 07:51:00;;;;;;;2.72;1.92;;;6.10;99.90;;;;;;5059103;28;20028;-73
2023/01/10 07:53:27;;;;;;;2.10;1.90;;;6.00;99.90;;;;;;5055637;28;20032;-73
2023/01/10 07:55:53;;;;;;;3.08;1.90;;;6.00;99.90;;;;;;5056132;28;20521;-73
2023/01/10 07:58:19;;;;;;;3.17;2.28;;;5.90;99.90;;;;;;5056229;28;20056;-73
2023/01/10 08:00:49;;;;;;;2.65;2.10;;;6.00;99.90;;;;;;5056706;28;20083;-74
2023/01/10 08:03:15;;;;;;;2.38;1.73;;;5.90;99.90;;;;;;5058397;28;20505;-74
2023/01/10 08:05:41;;;;;;;2.95;2.03;;;5.90;99.90;;;;;;5057697;28;20386;-73
2023/01/10 08:08:09;;;;;;;2.90;1.83;;;5.90;99.90;;;;;;5056626;28;20025;-74
2023/01/10 08:10:36;;;;;;;4.13;2.40;;;6.00;99.90;;;;;;5056353;28;20032;-74
2023/01/10 08:13:02;;;;;;;4.97;2.53;;;6.00;99.90;;;;;;5056605;28;20226;-74
2023/01/10 08:15:28;;;;;;;4.00;2.13;;;6.00;99.90;;;;;;5056291;28;20482;-74
2023/01/10 08:17:54;;;;;;;5.07;2.17;;;6.10;99.90;;;;;;5054445;28;20120;-74
2023/01/10 08:20:20;;;;;;;5.32;2.30;;;6.10;99.90;;;;;;5057922;28;20067;-74
2023/01/10 08:22:45;;;;;;;2.25;1.80;;;6.10;99.90;;;;;;5061817;28;20025;-73
2023/01/10 08:25:11;;;;;;;2.17;2.00;;;6.10;99.90;;;;;;5062290;28;20056;-74
2023/01/10 08:27:37;;;;;;;2.83;2.58;;;6.10;99.90;;;;;;5061159;28;20517;-74
2023/01/10 08:30:04;;;;;;;2.00;1.63;;;6.20;99.90;;;;;;5060637;28;20425;-74
2023/01/10 08:32:30;;;;;;;9.27;2.10;;;6.20;99.90;;;;;;5059419;28;20024;-74
2023/01/10 08:34:56;;;;;;;2.40;2.20;;;6.20;99.90;;;;;;5056929;28;20036;-74
2023/01/10 08:37:22;;;;;;;3.17;1.92;;;6.30;99.90;;;;;;5057171;28;20052;-74
2023/01/10 08:39:47;;;;;;;4.82;2.00;;;6.30;99.90;;;;;;5056241;28;20092;-74
2023/01/10 08:42:15;;;;;;;5.68;2.00;;;6.30;99.90;;;;;;5057377;28;20025;-74
2023/01/10 08:44:41;;;;;;;2.47;1.80;;;6.30;99.90;;;;;;5057582;28;20028;-74
2023/01/10 08:47:06;;;;;;;2.05;1.55;;;6.30;99.90;;;;;;5057473;28;20033;-75
2023/01/10 08:49:32;;;;;;;3.03;1.50;;;6.40;99.90;;;;;;5057374;28;20037;-74
2023/01/10 08:51:57;;;;;;;2.55;1.70;;;6.40;99.90;;;;;;5057073;28;20040;-75
2023/01/10 08:54:23;;;;;;;2.28;1.65;;;6.40;99.90;;;;;;5056314;28;20084;-75
2023/01/10 08:56:49;;;;;;;1.95;1.77;;;6.40;99.90;;;;;;5056425;28;20071;-75
2023/01/10 08:59:15;;;;;;;3.50;1.77;;;6.50;99.90;;;;;;5056322;28;20079;-75
2023/01/10 09:01:40;;;;;;;4.43;1.63;;;6.50;99.90;;;;;;5054503;28;20056;-75
2023/01/10 09:04:06;;;;;;;6.93;2.35;;;6.50;99.90;;;;;;5054722;28;20025;-76
2023/01/10 09:06:32;;;;;;;5.07;1.70;;;6.50;99.90;;;;;;5056212;28;20033;-76
2023/01/10 09:08:57;;;;;;;2.95;1.80;;;6.50;99.90;;;;;;5054595;28;20111;-76
2023/01/10 09:11:23;;;;;;;3.28;1.80;;;6.50;99.90;;;;;;5056040;28;20045;-76
2023/01/10 09:13:49;;;;;;;2.03;1.75;;;6.50;99.90;;;;;;5056216;28;20028;-76
2023/01/10 09:16:15;;;;;;;3.50;1.40;;;6.60;99.90;;;;;;5053842;28;20488;-76
2023/01/10 09:18:41;;;;;;;3.58;2.17;;;6.60;99.90;;;;;;5055120;28;20033;-76
2023/01/10 09:21:07;;;;;;;2.33;1.52;;;6.60;99.90;;;;;;5055817;28;20462;-76
2023/01/10 09:23:32;;;;;;;5.28;1.52;;;6.60;99.90;;;;;;5054228;28;20061;-76
2023/01/10 09:25:59;;;;;;;2.20;1.75;;;6.60;99.90;;;;;;5054352;28;20040;-76
2023/01/10 09:28:25;;;;;;;5.68;2.05;;;6.60;99.90;;;;;;5054068;28;20482;-77
2023/01/10 09:30:52;;;;;;;2.15;1.38;;;6.70;99.90;;;;;;5055782;28;20029;-77
2023/01/10 09:33:18;;;;;;;6.47;1.63;;;6.70;99.90;;;;;;5055188;28;20048;-77
2023/01/10 09:35:43;;;;;;;3.40;1.80;;;6.70;99.90;;;;;;5054609;28;20482;-76
2023/01/10 09:38:13;;;;;;;2.83;1.60;;;6.70;99.90;;;;;;5056123;28;20051;-76
2023/01/10 09:40:42;;;;;;;2.72;1.50;;;6.70;99.90;;;;;;5055298;28;20103;-76
2023/01/10 09:43:38;;;;;;;2.50;2.10;;;6.80;99.90;;;;;;5054474;28;20035;-76
2023/01/10 09:46:14;;;;;;;1.85;1.58;;;6.80;99.90;;;;;;5055483;28;20470;-76
2023/01/10 09:48:55;;;;;;;2.30;1.55;;;6.80;99.90;;;;;;5055426;28;20040;-76
2023/01/10 09:51:38;;;;;;;4.55;1.95;;;6.80;99.90;;;;;;5055921;28;20025;-76
2023/01/10 09:54:15;;;;;;;3.55;1.50;;;6.80;99.90;;;;;;5055340;28;20079;-76
2023/01/10 09:56:42;;;;;;;2.75;1.90;;;6.90;99.90;;;;;;5073041;28;20025;-76
2023/01/10 09:59:20;;;;;;;1.98;1.63;;;6.90;99.90;;;;;;5058692;28;20042;-76
2023/01/10 10:01:50;;;;;;;4.97;1.90;;;6.90;99.90;;;;;;5076302;28;20032;-76
2023/01/10 10:04:37;;;;;;;2.25;1.60;;;6.90;99.90;;;;;;5074152;28;20021;-76
2023/01/10 10:07:11;;;;;;;2.35;1.63;;;6.90;99.90;;;;;;5075766;28;20039;-77
2023/01/10 10:09:37;;;;;;;2.13;1.67;;;6.90;99.90;;;;;;5058329;28;20445;-76
2023/01/10 10:12:30;;;;;;;4.25;1.33;;;6.90;99.90;;;;;;5058539;28;20028;-76
2023/01/10 10:15:13;;;;;;;2.80;1.75;;;6.90;99.90;;;;;;5076375;28;20017;-76
2023/01/10 10:17:52;;;;;;;2.47;1.40;;;7.00;99.90;;;;;;5076687;28;20083;-75
2023/01/10 10:20:26;;;;;;;1.58;1.48;;;7.00;99.90;;;;;;5076176;28;20024;-76
2023/01/10 10:23:14;;;;;;;2.03;1.50;;;7.00;99.90;;;;;;5056606;28;20381;-76
2023/01/10 10:26:03;;;;;;;3.05;1.60;;;7.10;99.90;;;;;;5076999;28;20036;-76
2023/01/10 10:28:47;;;;;;;;;;;7.10;99.90;;;;;;5064105;28;20080;-76
2023/01/10 10:31:52;;;;;;;3.65;1.30;;;7.10;99.90;;;;;;5059133;28;19923;-76
2023/01/10 10:34:49;;;;;;;2.33;1.50;;;7.10;99.90;;;;;;5058943;28;20408;-76
2023/01/10 10:37:34;;;;;;;2.58;1.58;;;7.20;99.90;;;;;;5031935;28;20033;-76
2023/01/10 10:40:06;;;;;;;1.63;1.20;;;7.20;99.90;;;;;;5076993;28;20458;-76
2023/01/10 10:42:40;;;;;;;3.10;1.40;;;7.20;99.90;;;;;;5059956;28;20043;-76
2023/01/10 10:45:17;;;;;;;3.70;1.48;;;7.20;99.90;;;;;;5078800;28;20028;-76
2023/01/10 10:47:49;;;;;;;2.60;1.80;;;7.30;99.90;;;;;;5077263;28;20040;-76
2023/01/10 10:50:30;;;;;;;2.47;1.60;;;7.30;99.90;;;;;;5059839;28;20035;-76
2023/01/10 10:52:58;;;;;;;2.65;1.17;;;7.30;99.90;;;;;;5077760;28;20078;-76
2023/01/10 10:55:32;;;;;;;4.80;1.38;;;7.30;99.90;;;;;;5059874;28;20036;-76
2023/01/10 10:57:58;;;;;;;5.13;1.70;;;7.30;99.90;;;;;;5058773;28;20065;-76
2023/01/10 11:00:25;;;;;;;3.00;1.80;;;7.30;99.90;;;;;;5058666;28;20478;-76
2023/01/10 11:03:16;;;;;;;4.60;1.45;;;7.40;99.90;;;;;;5076603;28;20107;-76
2023/01/10 11:05:45;;;;;;;3.08;1.42;;;7.40;99.90;;;;;;5075704;28;20044;-76
2023/01/10 11:08:14;;;;;;;3.60;1.25;;;7.40;99.90;;;;;;5057267;28;20028;-76
2023/01/10 11:10:45;;;;;;;2.72;1.23;;;7.40;99.90;;;;;;5075378;28;20377;-76
2023/01/10 11:13:20;;;;;;;5.75;1.95;;;7.40;99.90;;;;;;5057612;28;20024;-76
2023/01/10 11:15:48;;;;;;;2.42;1.88;;;7.40;99.90;;;;;;5058396;28;20377;-76
2023/01/10 11:18:19;;;;;;;4.60;1.38;;;7.40;99.90;;;;;;5079102;28;20025;-76
2023/01/10 11:20:59;;;;;;;6.63;1.83;;;7.40;99.90;;;;;;5060449;28;20453;-77
2023/01/10 11:23:42;;;;;;;2.35;1.63;;;7.40;99.90;;;;;;5060438;28;20031;-76
2023/01/10 11:26:22;;;;;;;5.45;2.30;;;7.40;99.90;;;;;;5061042;28;20033;-77
2023/01/10 11:28:52;;;;;;;5.55;2.50;;;7.40;99.90;;;;;;5078507;28;20109;-76
2023/01/10 11:31:28;;;;;;;2.33;1.60;;;7.50;99.90;;;;;;5078321;28;20051;-76
2023/01/10 11:33:55;;;;;;;4.22;1.48;;;7.50;99.90;;;;;;5078609;28;20037;-76
2023/01/10 11:36:20;;;;;;;2.70;1.55;;;7.60;99.90;;;;;;5060384;28;20024;-76
2023/01/10 11:39:01;;;;;;;2.22;1.40;;;7.60;99.90;;;;;;5078560;28;20025;-76
2023/01/10 11:41:32;;;;;;;2.05;1.15;;;7.60;99.90;;;;;;5078098;28;20027;-76
2023/01/10 11:44:31;;;;;;;3.97;1.15;;;7.70;99.90;;;;;;5060600;28;20070;-76
2023/01/10 11:47:02;;;;;;;4.78;0.98;;;7.70;99.90;;;;;;5023247;28;20049;-76
2023/01/10 11:49:38;;;;;;;1.38;1.13;;;7.70;99.90;;;;;;5078363;28;20031;-77
2023/01/10 11:52:19;;;;;;;3.33;1.08;;;7.70;99.90;;;;;;5078436;28;20036;-76
2023/01/10 11:54:45;;;;;;;4.38;1.30;;;7.70;99.90;;;;;;5078971;28;20520;-76
2023/01/10 11:57:15;;;;;;;3.47;1.27;;;7.70;99.90;;;;;;5061259;28;20025;-75
2023/01/10 11:59:56;;;;;;;2.53;1.10;;;7.80;99.90;;;;;;5061217;28;20025;-76
2023/01/10 12:02:29;;;;;;;5.68;1.13;;;7.90;99.90;;;;;;5078663;28;20025;-75
2023/01/10 12:04:58;;;;;;;5.78;1.00;;;7.90;99.90;;;;;;5077199;28;20048;-75
2023/01/10 12:07:23;;;;;;;3.05;1.00;;;8.00;99.90;;;;;;5076910;28;20033;-76
2023/01/10 12:10:00;;;;;;;3.42;1.00;;;8.10;99.90;;;;;;5078458;28;20039;-76
2023/01/10 12:12:33;;;;;;;2.40;1.30;;;8.30;99.90;;;;;;5060206;28;20078;-76
2023/01/10 12:15:21;;;;;;;2.58;0.90;;;8.50;99.90;;;;;;5060216;28;20386;-76
2023/01/10 12:17:46;;;;;;;3.00;0.70;;;8.90;99.90;;;;;;5078361;28;20363;-76
2023/01/10 12:20:14;;;;;;;0.93;0.68;;;9.20;99.90;;;;;;5078579;28;20021;-76
2023/01/10 12:22:46;;;;;;;3.22;0.95;;;9.30;99.90;;;;;;5078618;28;20035;-76
2023/01/10 12:25:18;;;;;;;1.45;0.90;;;9.70;99.90;;;;;;5078336;28;20031;-76
2023/01/10 12:27:48;;;;;;;1.73;1.10;;;9.70;99.30;;;;;;5057821;28;20052;-76
2023/01/10 12:30:33;;;;;;;2.40;0.75;;;9.70;99.20;;;;;;5058904;28;20381;-77
2023/01/10 12:33:03;;;;;;;3.63;0.60;;;10.00;98.60;;;;;;5077499;28;20028;-77
2023/01/10 12:35:51;;;;;;;3.60;1.00;;;10.00;97.00;;;;;;5058626;28;20020;-76
2023/01/10 12:44:40;;;;;;;4.50;1.02;;;10.70;93.90;;;;;;5077811;28;20036;-76
2023/01/10 12:47:41;;;;;;;0.95;0.55;;;10.80;93.10;;;;;;5058913;28;20515;-73
2023/01/10 12:50:33;;;;;;;4.30;0.70;;;10.40;93.50;;;;;;5077192;28;20024;-76
2023/01/10 12:53:05;;;;;;;1.30;0.65;;;10.80;93.90;;;;;;5059191;28;20082;-76
2023/01/10 12:55:41;;;;;;;1.27;0.68;;;10.70;92.90;;;;;;5077049;28;20066;-76
2023/01/10 12:58:31;;;;;;;0.88;0.75;;;10.20;93.40;;;;;;5059457;28;20461;-76
2023/01/10 13:00:59;;;;;;;1.65;0.75;;;9.80;95.00;;;;;;5042075;28;20032;-77
2023/01/10 13:03:29;;;;;;;1.65;0.70;;;9.70;95.70;;;;;;5077015;28;20028;-76
2023/01/10 13:05:57;;;;;;;3.38;0.80;;;9.80;95.30;;;;;;5058935;28;20039;-76
2023/01/10 13:08:31;;;;;;;2.55;0.65;;;9.70;95.50;;;;;;5059842;28;20031;-76
2023/01/10 13:10:58;;;;;;;0.95;0.60;;;9.20;95.80;;;;;;5077513;28;20017;-77
2023/01/10 13:13:39;;;;;;;1.52;0.75;;;8.90;96.90;;;;;;5076980;28;20028;-77
2023/01/10 13:16:41;;;;;;;1.58;0.80;;;8.70;98.00;;;;;;5076443;28;20390;-76
2023/01/10 13:19:10;;;;;;;1.10;0.95;;;8.60;99.40;;;;;;5059213;28;20025;-76
2023/01/10 13:21:42;;;;;;;0.80;0.80;;;8.60;99.90;;;;;;5058774;28;20523;-79
2023/01/10 13:24:27;;;;;;;1.77;0.65;;;8.60;99.90;;;;;;5075630;28;20029;-77
2023/01/10 13:26:56;;;;;;;2.55;1.00;;;8.40;99.90;;;;;;5059057;28;20066;-78
2023/01/10 13:29:23;;;;;;;8.68;1.02;;;8.30;99.90;;;;;;5059555;28;20497;-78